LTU3MJ EDDL-LEPA
Flight info
| Callsign | LTU3MJ |
|---|---|
| Flight time | 2h 0m |
| Altitude | 37000 |
| Route | MODRU Z283 SOPOK DCT ROUSY DCT GTQ DCT POGOL DCT LASAT DCT MOROK DCT GILIR DCT GEVEA DCT INCUS DCT BALSI DCT RETNO DCT TUPOX DCT MTG DCT DIVKO DCT VATIR DCT PIVUS DCT BODEQ DCT VERSO DCT LUNIK |
| Aircraft | L101/H-SDFGHIRWXY/S |
Departure
| Time | 2026-05-05 09:35 |
|---|---|
| Airport | Düsseldorf Airport (EDDL) |
Arrival
| Time | 2026-05-05 11:36 |
|---|---|
| Airport | Palma de Mallorca Airport (LEPA) |
| Time | Latitude | Longitude | Altitude | Speed | Heading |
|---|---|---|---|---|---|
| 2026-05-05 09:21 | 51.28069 | 6.76290 | 133 ft | 0 kts | 185° |
| 2026-05-05 09:24 | 51.28070 | 6.76290 | 133 ft | 2 kts | 185° |
| 2026-05-05 09:24 | 51.28096 | 6.76292 | 133 ft | 4 kts | 176° |
| 2026-05-05 09:25 | 51.28120 | 6.76283 | 129 ft | 4 kts | 140° |
| 2026-05-05 09:25 | 51.28134 | 6.76253 | 133 ft | 4 kts | 104° |
| 2026-05-05 09:25 | 51.28132 | 6.76215 | 133 ft | 4 kts | 57° |
| 2026-05-05 09:25 | 51.28117 | 6.76183 | 132 ft | 2 kts | 52° |
| 2026-05-05 09:26 | 51.28116 | 6.76182 | 133 ft | 1 kts | 52° |
| 2026-05-05 09:30 | 51.28118 | 6.76185 | 132 ft | 2 kts | 52° |
| 2026-05-05 09:30 | 51.28144 | 6.76232 | 132 ft | 9 kts | 37° |
| 2026-05-05 09:30 | 51.28214 | 6.76248 | 133 ft | 10 kts | 11° |
| 2026-05-05 09:30 | 51.28280 | 6.76335 | 129 ft | 15 kts | 54° |
| 2026-05-05 09:31 | 51.28351 | 6.76488 | 125 ft | 19 kts | 52° |
| 2026-05-05 09:31 | 51.28438 | 6.76668 | 127 ft | 22 kts | 54° |
| 2026-05-05 09:31 | 51.28525 | 6.76852 | 130 ft | 19 kts | 52° |
| 2026-05-05 09:31 | 51.28607 | 6.77022 | 134 ft | 21 kts | 52° |
| 2026-05-05 09:32 | 51.28699 | 6.77215 | 134 ft | 23 kts | 52° |
| 2026-05-05 09:32 | 51.28801 | 6.77429 | 134 ft | 25 kts | 53° |
| 2026-05-05 09:32 | 51.28894 | 6.77626 | 134 ft | 23 kts | 52° |
| 2026-05-05 09:32 | 51.28997 | 6.77842 | 135 ft | 26 kts | 52° |
| 2026-05-05 09:33 | 51.29110 | 6.78077 | 137 ft | 28 kts | 53° |
| 2026-05-05 09:33 | 51.29223 | 6.78315 | 145 ft | 26 kts | 53° |
| 2026-05-05 09:33 | 51.29326 | 6.78530 | 155 ft | 20 kts | 45° |
| 2026-05-05 09:33 | 51.29437 | 6.78567 | 157 ft | 17 kts | 354° |
| 2026-05-05 09:34 | 51.29522 | 6.78507 | 156 ft | 9 kts | 285° |
| 2026-05-05 09:34 | 51.29497 | 6.78420 | 154 ft | 0 kts | 231° |
| 2026-05-05 09:34 | 51.29484 | 6.78394 | 153 ft | 12 kts | 232° |
| 2026-05-05 09:34 | 51.29335 | 6.78086 | 145 ft | 61 kts | 233° |
| 2026-05-05 09:35 | 51.28962 | 6.77301 | 134 ft | 116 kts | 234° |
| 2026-05-05 09:35 | 51.27729 | 6.74639 | 908 ft | 161 kts | 236° |
| 2026-05-05 09:35 | 51.27087 | 6.73169 | 1523 ft | 161 kts | 237° |
| 2026-05-05 09:36 | 51.26547 | 6.71461 | 1761 ft | 187 kts | 251° |
| 2026-05-05 09:36 | 51.26219 | 6.69235 | 1931 ft | 229 kts | 261° |
| 2026-05-05 09:36 | 51.25996 | 6.66439 | 2106 ft | 278 kts | 264° |
| 2026-05-05 09:36 | 51.25977 | 6.63197 | 2693 ft | 296 kts | 279° |
| 2026-05-05 09:37 | 51.26633 | 6.60295 | 3634 ft | 260 kts | 298° |
| 2026-05-05 09:37 | 51.27522 | 6.58048 | 4653 ft | 225 kts | 303° |
| 2026-05-05 09:37 | 51.28321 | 6.56012 | 5295 ft | 210 kts | 296° |
| 2026-05-05 09:37 | 51.28730 | 6.53784 | 5717 ft | 212 kts | 271° |
| 2026-05-05 09:38 | 51.28605 | 6.51431 | 6317 ft | 213 kts | 259° |
| 2026-05-05 09:38 | 51.28376 | 6.49050 | 6864 ft | 223 kts | 264° |
| 2026-05-05 09:38 | 51.28352 | 6.46468 | 7310 ft | 254 kts | 271° |
| 2026-05-05 09:38 | 51.28404 | 6.43492 | 7864 ft | 277 kts | 269° |
| 2026-05-05 09:39 | 51.28298 | 6.40346 | 8280 ft | 287 kts | 263° |
| 2026-05-05 09:39 | 51.27983 | 6.37087 | 8671 ft | 310 kts | 258° |
| 2026-05-05 09:39 | 51.27443 | 6.33715 | 9597 ft | 315 kts | 247° |
| 2026-05-05 09:39 | 51.26273 | 6.30858 | 10691 ft | 312 kts | 223° |
| 2026-05-05 09:40 | 51.24499 | 6.28782 | 11568 ft | 321 kts | 211° |
| 2026-05-05 09:40 | 51.22544 | 6.26784 | 11937 ft | 347 kts | 214° |
| 2026-05-05 09:40 | 51.20490 | 6.24486 | 12092 ft | 374 kts | 214° |
| 2026-05-05 09:40 | 51.18268 | 6.22078 | 12255 ft | 396 kts | 212° |
| 2026-05-05 09:41 | 51.15891 | 6.19868 | 12886 ft | 401 kts | 207° |
| 2026-05-05 09:41 | 51.13419 | 6.17896 | 14107 ft | 388 kts | 205° |
| 2026-05-05 09:41 | 51.11006 | 6.16073 | 15227 ft | 383 kts | 204° |
| 2026-05-05 09:41 | 51.08574 | 6.14203 | 15861 ft | 392 kts | 205° |
| 2026-05-05 09:42 | 51.06060 | 6.12246 | 16120 ft | 411 kts | 205° |
| 2026-05-05 09:42 | 51.03495 | 6.10245 | 16778 ft | 416 kts | 205° |
| 2026-05-05 09:42 | 51.00965 | 6.08080 | 18017 ft | 408 kts | 209° |
| 2026-05-05 09:42 | 50.98542 | 6.05747 | 18846 ft | 410 kts | 211° |
| 2026-05-05 09:43 | 50.96094 | 6.03279 | 19240 ft | 423 kts | 211° |
| 2026-05-05 09:43 | 50.93555 | 6.00855 | 20029 ft | 423 kts | 208° |
| 2026-05-05 09:43 | 50.90969 | 5.98625 | 20926 ft | 424 kts | 207° |
| 2026-05-05 09:43 | 50.88354 | 5.96463 | 21437 ft | 435 kts | 207° |
| 2026-05-05 09:44 | 50.85651 | 5.94211 | 22369 ft | 434 kts | 207° |
| 2026-05-05 09:44 | 50.82990 | 5.91944 | 23305 ft | 436 kts | 208° |
| 2026-05-05 09:44 | 50.80292 | 5.89613 | 23666 ft | 448 kts | 208° |
| 2026-05-05 09:44 | 50.77535 | 5.87221 | 24329 ft | 450 kts | 208° |
| 2026-05-05 09:45 | 50.74834 | 5.84884 | 25316 ft | 445 kts | 208° |
| 2026-05-05 09:45 | 50.72106 | 5.82532 | 25886 ft | 451 kts | 208° |
| 2026-05-05 09:45 | 50.69323 | 5.80135 | 26048 ft | 466 kts | 208° |
| 2026-05-05 09:45 | 50.66433 | 5.77652 | 26221 ft | 478 kts | 208° |
| 2026-05-05 09:46 | 50.63498 | 5.75126 | 26896 ft | 478 kts | 208° |
| 2026-05-05 09:46 | 50.60607 | 5.72643 | 28191 ft | 465 kts | 207° |
| 2026-05-05 09:46 | 50.57673 | 5.70629 | 29291 ft | 459 kts | 196° |
| 2026-05-05 09:46 | 50.54530 | 5.69959 | 30279 ft | 456 kts | 179° |
| 2026-05-05 09:47 | 50.51435 | 5.70763 | 31319 ft | 452 kts | 167° |
| 2026-05-05 09:47 | 50.48439 | 5.72165 | 32394 ft | 444 kts | 167° |
| 2026-05-05 09:47 | 50.45470 | 5.73302 | 33448 ft | 434 kts | 173° |
| 2026-05-05 09:47 | 50.42497 | 5.74032 | 34337 ft | 428 kts | 176° |
| 2026-05-05 09:48 | 50.39569 | 5.74572 | 34778 ft | 431 kts | 176° |
| 2026-05-05 09:48 | 50.36566 | 5.75112 | 35240 ft | 434 kts | 176° |
| 2026-05-05 09:48 | 50.33556 | 5.75698 | 35711 ft | 437 kts | 175° |
| 2026-05-05 09:48 | 50.30527 | 5.76308 | 36194 ft | 439 kts | 175° |
| 2026-05-05 09:49 | 50.27483 | 5.76936 | 36581 ft | 443 kts | 173° |
| 2026-05-05 09:49 | 50.24443 | 5.77922 | 36758 ft | 447 kts | 168° |
| 2026-05-05 09:49 | 50.18477 | 5.80594 | 36848 ft | 447 kts | 167° |
| 2026-05-05 09:50 | 50.12463 | 5.83178 | 36860 ft | 447 kts | 167° |
| 2026-05-05 09:50 | 50.06508 | 5.85763 | 36866 ft | 447 kts | 167° |
| 2026-05-05 09:51 | 50.00517 | 5.88419 | 36863 ft | 446 kts | 167° |
| 2026-05-05 09:51 | 49.94568 | 5.91046 | 36865 ft | 446 kts | 167° |
| 2026-05-05 09:52 | 49.88590 | 5.93669 | 36866 ft | 446 kts | 167° |
| 2026-05-05 09:52 | 49.82557 | 5.96317 | 36865 ft | 458 kts | 167° |
| 2026-05-05 09:53 | 49.76482 | 5.98994 | 36850 ft | 447 kts | 166° |
| 2026-05-05 09:53 | 49.70530 | 6.01601 | 36855 ft | 446 kts | 167° |
| 2026-05-05 09:54 | 49.64556 | 6.04201 | 36857 ft | 445 kts | 167° |
| 2026-05-05 09:54 | 49.58607 | 6.06794 | 36852 ft | 445 kts | 167° |
| 2026-05-05 09:55 | 49.52630 | 6.09396 | 36858 ft | 446 kts | 166° |
| 2026-05-05 09:55 | 49.47908 | 6.12680 | 36812 ft | 452 kts | 147° |
| 2026-05-05 09:56 | 49.42909 | 6.18601 | 36868 ft | 454 kts | 147° |
| 2026-05-05 09:56 | 49.37787 | 6.24171 | 36867 ft | 454 kts | 147° |
| 2026-05-05 09:57 | 49.32761 | 6.30114 | 36868 ft | 456 kts | 144° |
| 2026-05-05 09:57 | 49.27804 | 6.36198 | 36874 ft | 456 kts | 144° |
| 2026-05-05 09:58 | 49.22855 | 6.42243 | 36874 ft | 456 kts | 144° |
| 2026-05-05 09:58 | 49.17895 | 6.48316 | 36879 ft | 456 kts | 144° |
| 2026-05-05 09:59 | 49.12962 | 6.54354 | 36874 ft | 456 kts | 144° |
| 2026-05-05 09:59 | 49.08006 | 6.60426 | 36876 ft | 457 kts | 144° |
| 2026-05-05 10:00 | 49.03022 | 6.66423 | 36874 ft | 454 kts | 149° |
| 2026-05-05 10:00 | 49.00246 | 6.68625 | 36813 ft | 446 kts | 166° |
| 2026-05-05 10:00 | 48.97232 | 6.69408 | 36856 ft | 436 kts | 179° |
| 2026-05-05 10:01 | 48.91157 | 6.69917 | 36920 ft | 443 kts | 176° |
| 2026-05-05 10:01 | 48.85000 | 6.70624 | 36889 ft | 443 kts | 180° |
| 2026-05-05 10:02 | 48.78828 | 6.70652 | 36883 ft | 442 kts | 182° |
| 2026-05-05 10:02 | 48.72692 | 6.70473 | 36886 ft | 443 kts | 182° |
| 2026-05-05 10:03 | 48.66535 | 6.70282 | 36873 ft | 442 kts | 182° |
| 2026-05-05 10:03 | 48.60366 | 6.70059 | 36884 ft | 443 kts | 182° |
| 2026-05-05 10:04 | 48.54233 | 6.69818 | 36876 ft | 443 kts | 182° |
| 2026-05-05 10:04 | 48.48063 | 6.69595 | 36871 ft | 443 kts | 182° |
| 2026-05-05 10:05 | 48.41898 | 6.69350 | 36876 ft | 443 kts | 182° |
| 2026-05-05 10:05 | 48.35770 | 6.69110 | 36876 ft | 443 kts | 182° |
| 2026-05-05 10:06 | 48.29603 | 6.68891 | 36875 ft | 443 kts | 182° |
| 2026-05-05 10:06 | 48.23440 | 6.68647 | 36870 ft | 443 kts | 182° |
| 2026-05-05 10:07 | 48.17268 | 6.68405 | 36870 ft | 443 kts | 182° |
| 2026-05-05 10:07 | 48.11137 | 6.68162 | 36873 ft | 443 kts | 182° |
| 2026-05-05 10:08 | 48.04961 | 6.67920 | 36870 ft | 443 kts | 182° |
| 2026-05-05 10:08 | 47.98819 | 6.67697 | 36867 ft | 443 kts | 182° |
| 2026-05-05 10:09 | 47.92633 | 6.67466 | 36864 ft | 443 kts | 182° |
| 2026-05-05 10:09 | 47.86482 | 6.67238 | 36870 ft | 443 kts | 182° |
| 2026-05-05 10:10 | 47.80306 | 6.67001 | 36862 ft | 443 kts | 182° |
| 2026-05-05 10:10 | 47.74132 | 6.66766 | 36877 ft | 445 kts | 182° |
| 2026-05-05 10:11 | 47.67965 | 6.66539 | 36887 ft | 445 kts | 182° |
| 2026-05-05 10:11 | 47.61758 | 6.66313 | 36875 ft | 445 kts | 182° |
| 2026-05-05 10:12 | 47.55547 | 6.66071 | 36882 ft | 447 kts | 183° |
| 2026-05-05 10:12 | 47.49349 | 6.65837 | 36879 ft | 447 kts | 183° |
| 2026-05-05 10:13 | 47.43148 | 6.65251 | 36834 ft | 445 kts | 195° |
| 2026-05-05 10:13 | 47.40309 | 6.63523 | 36810 ft | 441 kts | 212° |
| 2026-05-05 10:13 | 47.37834 | 6.60864 | 36907 ft | 440 kts | 217° |
| 2026-05-05 10:14 | 47.32796 | 6.55599 | 36894 ft | 445 kts | 214° |
| 2026-05-05 10:14 | 47.27836 | 6.50223 | 36879 ft | 445 kts | 218° |
| 2026-05-05 10:15 | 47.23041 | 6.44422 | 36875 ft | 445 kts | 219° |
| 2026-05-05 10:15 | 47.18287 | 6.38558 | 36881 ft | 445 kts | 219° |
| 2026-05-05 10:16 | 47.13590 | 6.32723 | 36878 ft | 444 kts | 219° |
| 2026-05-05 10:16 | 47.08735 | 6.27124 | 36826 ft | 443 kts | 207° |
| 2026-05-05 10:17 | 47.05848 | 6.25608 | 36810 ft | 440 kts | 191° |
| 2026-05-05 10:17 | 47.02803 | 6.25012 | 36905 ft | 440 kts | 188° |
| 2026-05-05 10:17 | 46.96765 | 6.23440 | 36886 ft | 444 kts | 192° |
| 2026-05-05 10:18 | 46.90638 | 6.21986 | 36884 ft | 445 kts | 188° |
| 2026-05-05 10:18 | 46.84522 | 6.21051 | 36887 ft | 445 kts | 187° |
| 2026-05-05 10:19 | 46.78352 | 6.20186 | 36895 ft | 445 kts | 187° |
| 2026-05-05 10:19 | 46.72186 | 6.19338 | 36892 ft | 444 kts | 187° |
| 2026-05-05 10:20 | 46.66023 | 6.18514 | 36898 ft | 444 kts | 187° |
| 2026-05-05 10:20 | 46.59897 | 6.17697 | 36896 ft | 444 kts | 187° |
| 2026-05-05 10:21 | 46.53727 | 6.16882 | 36900 ft | 444 kts | 187° |
| 2026-05-05 10:21 | 46.47602 | 6.16075 | 36901 ft | 444 kts | 187° |
| 2026-05-05 10:22 | 46.41446 | 6.15270 | 36900 ft | 444 kts | 187° |
| 2026-05-05 10:22 | 46.35290 | 6.14466 | 36914 ft | 443 kts | 187° |
| 2026-05-05 10:23 | 46.29138 | 6.13658 | 36910 ft | 443 kts | 187° |
| 2026-05-05 10:23 | 46.23012 | 6.12613 | 36912 ft | 442 kts | 190° |
| 2026-05-05 10:24 | 46.16959 | 6.11248 | 36909 ft | 442 kts | 190° |
| 2026-05-05 10:24 | 46.10866 | 6.09916 | 36910 ft | 442 kts | 190° |
| 2026-05-05 10:25 | 46.04784 | 6.08577 | 36936 ft | 442 kts | 191° |
| 2026-05-05 10:25 | 45.98738 | 6.07238 | 36935 ft | 441 kts | 191° |
| 2026-05-05 10:26 | 45.92663 | 6.05894 | 36943 ft | 442 kts | 191° |
| 2026-05-05 10:26 | 45.86582 | 6.04498 | 36938 ft | 441 kts | 192° |
| 2026-05-05 10:27 | 45.80524 | 6.03034 | 36925 ft | 442 kts | 190° |
| 2026-05-05 10:27 | 45.74453 | 6.01832 | 36931 ft | 442 kts | 190° |
| 2026-05-05 10:28 | 45.68353 | 6.00528 | 36940 ft | 442 kts | 191° |
| 2026-05-05 10:28 | 45.62308 | 5.99197 | 36940 ft | 442 kts | 191° |
| 2026-05-05 10:29 | 45.56215 | 5.97858 | 36935 ft | 443 kts | 191° |
| 2026-05-05 10:29 | 45.50104 | 5.96510 | 36934 ft | 443 kts | 192° |
| 2026-05-05 10:30 | 45.44096 | 5.94810 | 36926 ft | 441 kts | 195° |
| 2026-05-05 10:30 | 45.38082 | 5.92921 | 36925 ft | 442 kts | 195° |
| 2026-05-05 10:31 | 45.32055 | 5.91081 | 36923 ft | 442 kts | 195° |
| 2026-05-05 10:31 | 45.26041 | 5.89218 | 36921 ft | 441 kts | 195° |
| 2026-05-05 10:32 | 45.20070 | 5.87358 | 36919 ft | 441 kts | 195° |
| 2026-05-05 10:32 | 45.14057 | 5.85480 | 36923 ft | 442 kts | 195° |
| 2026-05-05 10:33 | 45.08079 | 5.83631 | 36919 ft | 441 kts | 195° |
| 2026-05-05 10:33 | 45.02068 | 5.81774 | 36913 ft | 440 kts | 195° |
| 2026-05-05 10:34 | 44.96118 | 5.79955 | 36921 ft | 438 kts | 195° |
| 2026-05-05 10:34 | 44.90140 | 5.78114 | 36923 ft | 438 kts | 196° |
| 2026-05-05 10:35 | 44.84186 | 5.76281 | 36929 ft | 437 kts | 196° |
| 2026-05-05 10:35 | 44.78278 | 5.74448 | 36928 ft | 432 kts | 196° |
| 2026-05-05 10:36 | 44.72445 | 5.72668 | 36925 ft | 431 kts | 196° |
| 2026-05-05 10:36 | 44.66580 | 5.70894 | 36943 ft | 431 kts | 196° |
| 2026-05-05 10:37 | 44.60710 | 5.69088 | 36930 ft | 432 kts | 196° |
| 2026-05-05 10:37 | 44.54826 | 5.67304 | 36938 ft | 433 kts | 196° |
| 2026-05-05 10:38 | 44.48963 | 5.65549 | 36959 ft | 433 kts | 196° |
| 2026-05-05 10:38 | 44.43083 | 5.63744 | 36936 ft | 431 kts | 196° |
| 2026-05-05 10:39 | 44.37307 | 5.61611 | 36936 ft | 427 kts | 203° |
| 2026-05-05 10:39 | 44.31768 | 5.58617 | 36941 ft | 426 kts | 204° |
| 2026-05-05 10:40 | 44.26247 | 5.55728 | 36937 ft | 425 kts | 204° |
| 2026-05-05 10:40 | 44.20711 | 5.52763 | 36941 ft | 425 kts | 204° |
| 2026-05-05 10:41 | 44.15185 | 5.49759 | 36946 ft | 425 kts | 205° |
| 2026-05-05 10:41 | 44.09715 | 5.46783 | 36943 ft | 425 kts | 204° |
| 2026-05-05 10:42 | 44.01448 | 5.42293 | 36941 ft | 424 kts | 205° |
| 2026-05-05 10:43 | 43.96879 | 5.39816 | 36945 ft | 424 kts | 205° |
| 2026-05-05 10:43 | 43.91374 | 5.36844 | 36944 ft | 424 kts | 205° |
| 2026-05-05 10:44 | 43.85897 | 5.33893 | 36941 ft | 424 kts | 205° |
| 2026-05-05 10:44 | 43.80399 | 5.30923 | 36946 ft | 423 kts | 205° |
| 2026-05-05 10:45 | 43.74900 | 5.27957 | 36943 ft | 424 kts | 205° |
| 2026-05-05 10:45 | 43.69408 | 5.24997 | 36925 ft | 423 kts | 205° |
| 2026-05-05 10:46 | 43.63934 | 5.22071 | 36938 ft | 423 kts | 205° |
| 2026-05-05 10:46 | 43.58437 | 5.19127 | 36960 ft | 423 kts | 205° |
| 2026-05-05 10:47 | 43.52943 | 5.16177 | 36966 ft | 423 kts | 205° |
| 2026-05-05 10:47 | 43.47480 | 5.13254 | 36963 ft | 423 kts | 205° |
| 2026-05-05 10:48 | 43.41972 | 5.10331 | 36966 ft | 423 kts | 206° |
| 2026-05-05 10:48 | 43.36880 | 5.06407 | 36973 ft | 417 kts | 217° |
| 2026-05-05 10:49 | 43.32038 | 5.01990 | 36933 ft | 419 kts | 215° |
| 2026-05-05 10:49 | 43.27177 | 4.97652 | 36953 ft | 419 kts | 216° |
| 2026-05-05 10:50 | 43.22339 | 4.93155 | 36952 ft | 419 kts | 217° |
| 2026-05-05 10:50 | 43.17530 | 4.88644 | 36947 ft | 418 kts | 217° |
| 2026-05-05 10:51 | 43.12702 | 4.84172 | 36951 ft | 418 kts | 217° |
| 2026-05-05 10:51 | 43.07926 | 4.79708 | 36948 ft | 418 kts | 216° |
| 2026-05-05 10:52 | 43.02916 | 4.75593 | 36949 ft | 420 kts | 212° |
| 2026-05-05 10:52 | 42.97796 | 4.71714 | 36948 ft | 420 kts | 212° |
| 2026-05-05 10:53 | 42.92710 | 4.67835 | 36949 ft | 420 kts | 212° |
| 2026-05-05 10:53 | 42.87595 | 4.63953 | 36952 ft | 421 kts | 212° |
| 2026-05-05 10:54 | 42.82464 | 4.60076 | 36951 ft | 421 kts | 212° |
| 2026-05-05 10:54 | 42.77336 | 4.56201 | 36964 ft | 421 kts | 212° |
| 2026-05-05 10:55 | 42.72243 | 4.52350 | 36951 ft | 420 kts | 212° |
| 2026-05-05 10:55 | 42.67124 | 4.48504 | 36954 ft | 420 kts | 212° |
| 2026-05-05 10:56 | 42.61995 | 4.44663 | 36954 ft | 420 kts | 212° |
| 2026-05-05 10:56 | 42.56897 | 4.40842 | 36958 ft | 420 kts | 212° |
| 2026-05-05 10:57 | 42.51781 | 4.36991 | 36945 ft | 420 kts | 212° |
| 2026-05-05 10:57 | 42.46687 | 4.33190 | 36955 ft | 420 kts | 212° |
| 2026-05-05 10:58 | 42.41567 | 4.29365 | 36958 ft | 420 kts | 212° |
| 2026-05-05 10:58 | 42.36433 | 4.25570 | 36961 ft | 420 kts | 212° |
| 2026-05-05 10:59 | 42.31312 | 4.21764 | 36950 ft | 419 kts | 212° |
| 2026-05-05 10:59 | 42.26192 | 4.17970 | 36965 ft | 419 kts | 212° |
| 2026-05-05 11:00 | 42.21097 | 4.14233 | 36961 ft | 419 kts | 212° |
| 2026-05-05 11:00 | 42.15973 | 4.10470 | 36960 ft | 418 kts | 212° |
| 2026-05-05 11:01 | 42.10842 | 4.06734 | 36949 ft | 418 kts | 212° |
| 2026-05-05 11:01 | 42.05751 | 4.03020 | 36960 ft | 418 kts | 212° |
| 2026-05-05 11:02 | 42.00624 | 3.99267 | 36962 ft | 419 kts | 212° |
| 2026-05-05 11:02 | 41.95492 | 3.95551 | 36951 ft | 420 kts | 209° |
| 2026-05-05 11:03 | 41.89842 | 3.93451 | 36943 ft | 428 kts | 196° |
| 2026-05-05 11:03 | 41.84005 | 3.91820 | 36956 ft | 426 kts | 199° |
| 2026-05-05 11:04 | 41.78222 | 3.90153 | 36954 ft | 428 kts | 197° |
| 2026-05-05 11:04 | 41.72346 | 3.88737 | 36956 ft | 429 kts | 196° |
| 2026-05-05 11:05 | 41.66456 | 3.87372 | 36958 ft | 428 kts | 196° |
| 2026-05-05 11:05 | 41.60600 | 3.85998 | 36957 ft | 427 kts | 196° |
| 2026-05-05 11:06 | 41.54772 | 3.84667 | 36959 ft | 427 kts | 196° |
| 2026-05-05 11:06 | 41.48910 | 3.83317 | 36930 ft | 427 kts | 196° |
| 2026-05-05 11:07 | 41.43045 | 3.81975 | 36625 ft | 429 kts | 197° |
| 2026-05-05 11:07 | 41.40138 | 3.81295 | 36120 ft | 426 kts | 197° |
| 2026-05-05 11:07 | 41.37210 | 3.80616 | 35622 ft | 431 kts | 197° |
| 2026-05-05 11:07 | 41.34226 | 3.79931 | 35119 ft | 437 kts | 196° |
| 2026-05-05 11:08 | 41.31209 | 3.79248 | 34622 ft | 440 kts | 196° |
| 2026-05-05 11:08 | 41.28185 | 3.78565 | 34064 ft | 440 kts | 197° |
| 2026-05-05 11:08 | 41.25169 | 3.77884 | 33480 ft | 439 kts | 197° |
| 2026-05-05 11:08 | 41.22193 | 3.77209 | 32890 ft | 438 kts | 197° |
| 2026-05-05 11:09 | 41.19188 | 3.76528 | 32311 ft | 436 kts | 197° |
| 2026-05-05 11:09 | 41.16182 | 3.75847 | 31754 ft | 440 kts | 198° |
| 2026-05-05 11:09 | 41.13229 | 3.74796 | 31114 ft | 437 kts | 205° |
| 2026-05-05 11:09 | 41.10416 | 3.73283 | 30498 ft | 434 kts | 209° |
| 2026-05-05 11:10 | 41.07686 | 3.71678 | 29901 ft | 434 kts | 209° |
| 2026-05-05 11:10 | 41.04887 | 3.70138 | 29163 ft | 432 kts | 207° |
| 2026-05-05 11:10 | 41.02092 | 3.68728 | 28586 ft | 427 kts | 206° |
| 2026-05-05 11:10 | 40.99314 | 3.67358 | 28053 ft | 424 kts | 206° |
| 2026-05-05 11:11 | 40.96591 | 3.65983 | 27538 ft | 421 kts | 206° |
| 2026-05-05 11:11 | 40.93870 | 3.64578 | 27003 ft | 418 kts | 206° |
| 2026-05-05 11:11 | 40.91160 | 3.63174 | 26412 ft | 416 kts | 206° |
| 2026-05-05 11:11 | 40.88462 | 3.61784 | 25847 ft | 414 kts | 206° |
| 2026-05-05 11:12 | 40.85777 | 3.60409 | 25282 ft | 412 kts | 206° |
| 2026-05-05 11:12 | 40.83100 | 3.59041 | 24714 ft | 411 kts | 206° |
| 2026-05-05 11:12 | 40.80471 | 3.57697 | 24182 ft | 409 kts | 205° |
| 2026-05-05 11:12 | 40.77817 | 3.56344 | 23644 ft | 408 kts | 205° |
| 2026-05-05 11:13 | 40.75173 | 3.54991 | 23046 ft | 406 kts | 205° |
| 2026-05-05 11:13 | 40.72540 | 3.53642 | 22422 ft | 404 kts | 205° |
| 2026-05-05 11:13 | 40.69933 | 3.52313 | 21820 ft | 401 kts | 205° |
| 2026-05-05 11:13 | 40.67336 | 3.50993 | 21226 ft | 398 kts | 205° |
| 2026-05-05 11:14 | 40.64789 | 3.49700 | 20647 ft | 396 kts | 205° |
| 2026-05-05 11:14 | 40.62219 | 3.48396 | 20076 ft | 393 kts | 205° |
| 2026-05-05 11:14 | 40.59669 | 3.47102 | 19519 ft | 391 kts | 205° |
| 2026-05-05 11:14 | 40.57128 | 3.45821 | 18975 ft | 389 kts | 204° |
| 2026-05-05 11:15 | 40.54608 | 3.44547 | 18498 ft | 387 kts | 205° |
| 2026-05-05 11:15 | 40.52137 | 3.43279 | 18014 ft | 385 kts | 205° |
| 2026-05-05 11:15 | 40.49647 | 3.41992 | 17483 ft | 383 kts | 205° |
| 2026-05-05 11:15 | 40.47158 | 3.40748 | 16945 ft | 381 kts | 201° |
| 2026-05-05 11:16 | 40.44546 | 3.40054 | 16395 ft | 385 kts | 187° |
| 2026-05-05 11:16 | 40.41856 | 3.40126 | 15895 ft | 386 kts | 181° |
| 2026-05-05 11:16 | 40.39215 | 3.40294 | 15458 ft | 382 kts | 183° |
| 2026-05-05 11:16 | 40.36565 | 3.40246 | 15048 ft | 379 kts | 186° |
| 2026-05-05 11:17 | 40.33932 | 3.40100 | 14622 ft | 377 kts | 186° |
| 2026-05-05 11:17 | 40.31313 | 3.40035 | 14142 ft | 376 kts | 183° |
| 2026-05-05 11:17 | 40.28687 | 3.40111 | 13662 ft | 373 kts | 181° |
| 2026-05-05 11:17 | 40.26190 | 3.40260 | 13131 ft | 350 kts | 180° |
| 2026-05-05 11:18 | 40.23829 | 3.40433 | 12585 ft | 330 kts | 180° |
| 2026-05-05 11:18 | 40.21592 | 3.40582 | 12050 ft | 314 kts | 181° |
| 2026-05-05 11:18 | 40.19444 | 3.40686 | 11509 ft | 301 kts | 181° |
| 2026-05-05 11:18 | 40.17385 | 3.40769 | 10992 ft | 291 kts | 181° |
| 2026-05-05 11:19 | 40.15416 | 3.40858 | 10489 ft | 282 kts | 181° |
| 2026-05-05 11:19 | 40.13480 | 3.40952 | 10003 ft | 275 kts | 180° |
| 2026-05-05 11:19 | 40.11577 | 3.41049 | 9378 ft | 273 kts | 180° |
| 2026-05-05 11:19 | 40.09668 | 3.41155 | 8724 ft | 273 kts | 180° |
| 2026-05-05 11:20 | 40.07765 | 3.41267 | 8096 ft | 272 kts | 179° |
| 2026-05-05 11:20 | 40.05910 | 3.41373 | 7687 ft | 269 kts | 179° |
| 2026-05-05 11:20 | 40.04035 | 3.41474 | 7297 ft | 270 kts | 179° |
| 2026-05-05 11:20 | 40.02152 | 3.41579 | 7015 ft | 269 kts | 179° |
| 2026-05-05 11:21 | 40.00287 | 3.41689 | 6941 ft | 267 kts | 179° |
| 2026-05-05 11:21 | 39.98422 | 3.41795 | 6979 ft | 270 kts | 179° |
| 2026-05-05 11:21 | 39.96541 | 3.41902 | 6988 ft | 271 kts | 179° |
| 2026-05-05 11:21 | 39.94682 | 3.42020 | 6987 ft | 270 kts | 179° |
| 2026-05-05 11:22 | 39.92803 | 3.42144 | 6978 ft | 270 kts | 179° |
| 2026-05-05 11:22 | 39.90921 | 3.42253 | 6982 ft | 269 kts | 179° |
| 2026-05-05 11:22 | 39.89051 | 3.42341 | 6982 ft | 269 kts | 180° |
| 2026-05-05 11:22 | 39.87174 | 3.42416 | 6988 ft | 269 kts | 180° |
| 2026-05-05 11:23 | 39.85314 | 3.42499 | 6828 ft | 273 kts | 180° |
| 2026-05-05 11:23 | 39.83414 | 3.42608 | 6460 ft | 271 kts | 179° |
| 2026-05-05 11:23 | 39.81537 | 3.42737 | 6078 ft | 269 kts | 179° |
| 2026-05-05 11:23 | 39.79674 | 3.42849 | 5694 ft | 267 kts | 179° |
| 2026-05-05 11:24 | 39.77818 | 3.42951 | 5319 ft | 265 kts | 179° |
| 2026-05-05 11:24 | 39.76014 | 3.43058 | 5120 ft | 254 kts | 179° |
| 2026-05-05 11:24 | 39.74293 | 3.43158 | 5035 ft | 249 kts | 180° |
| 2026-05-05 11:24 | 39.72559 | 3.43243 | 5016 ft | 250 kts | 180° |
| 2026-05-05 11:25 | 39.70855 | 3.42929 | 4949 ft | 247 kts | 206° |
| 2026-05-05 11:25 | 39.69560 | 3.41548 | 4931 ft | 242 kts | 236° |
| 2026-05-05 11:25 | 39.69046 | 3.39482 | 4963 ft | 246 kts | 267° |
| 2026-05-05 11:25 | 39.69442 | 3.37317 | 5002 ft | 251 kts | 290° |
| 2026-05-05 11:26 | 39.70041 | 3.35169 | 5069 ft | 255 kts | 278° |
| 2026-05-05 11:26 | 39.70220 | 3.32899 | 5043 ft | 251 kts | 269° |
| 2026-05-05 11:26 | 39.70242 | 3.30641 | 5012 ft | 250 kts | 267° |
| 2026-05-05 11:26 | 39.70264 | 3.28400 | 5000 ft | 250 kts | 269° |
| 2026-05-05 11:27 | 39.70349 | 3.26139 | 4990 ft | 251 kts | 271° |
| 2026-05-05 11:27 | 39.70495 | 3.23871 | 4986 ft | 251 kts | 272° |
| 2026-05-05 11:27 | 39.70662 | 3.21614 | 4979 ft | 251 kts | 273° |
| 2026-05-05 11:27 | 39.70833 | 3.19347 | 4982 ft | 252 kts | 273° |
| 2026-05-05 11:28 | 39.71004 | 3.17089 | 4953 ft | 248 kts | 273° |
| 2026-05-05 11:28 | 39.71173 | 3.14872 | 4675 ft | 246 kts | 273° |
| 2026-05-05 11:28 | 39.71352 | 3.12677 | 4325 ft | 241 kts | 273° |
| 2026-05-05 11:28 | 39.71528 | 3.10567 | 4137 ft | 234 kts | 273° |
| 2026-05-05 11:29 | 39.71620 | 3.08511 | 4004 ft | 223 kts | 259° |
| 2026-05-05 11:29 | 39.70979 | 3.06742 | 3919 ft | 215 kts | 224° |
| 2026-05-05 11:29 | 39.69757 | 3.05658 | 4024 ft | 208 kts | 215° |
| 2026-05-05 11:29 | 39.68733 | 3.04370 | 3987 ft | 203 kts | 234° |
| 2026-05-05 11:30 | 39.68032 | 3.02839 | 4212 ft | 198 kts | 239° |
| 2026-05-05 11:30 | 39.67373 | 3.01312 | 4294 ft | 185 kts | 239° |
| 2026-05-05 11:30 | 39.66718 | 2.99878 | 4108 ft | 185 kts | 238° |
| 2026-05-05 11:30 | 39.66275 | 2.98930 | 3970 ft | 184 kts | 238° |
| 2026-05-05 11:31 | 39.65612 | 2.97522 | 3770 ft | 181 kts | 237° |
| 2026-05-05 11:31 | 39.64965 | 2.96146 | 3578 ft | 174 kts | 238° |
| 2026-05-05 11:31 | 39.64325 | 2.94783 | 3259 ft | 178 kts | 237° |
| 2026-05-05 11:31 | 39.63694 | 2.93441 | 3043 ft | 168 kts | 238° |
| 2026-05-05 11:32 | 39.63114 | 2.92210 | 2924 ft | 155 kts | 236° |
| 2026-05-05 11:32 | 39.62553 | 2.91023 | 2668 ft | 152 kts | 236° |
| 2026-05-05 11:32 | 39.62007 | 2.89865 | 2425 ft | 154 kts | 237° |
| 2026-05-05 11:32 | 39.61436 | 2.88658 | 2256 ft | 158 kts | 236° |
| 2026-05-05 11:33 | 39.60862 | 2.87441 | 2039 ft | 158 kts | 237° |
| 2026-05-05 11:33 | 39.60289 | 2.86227 | 1832 ft | 157 kts | 235° |
| 2026-05-05 11:33 | 39.59731 | 2.85048 | 1641 ft | 146 kts | 236° |
| 2026-05-05 11:33 | 39.59234 | 2.83984 | 1366 ft | 132 kts | 238° |
| 2026-05-05 11:34 | 39.58762 | 2.82980 | 1173 ft | 133 kts | 237° |
| 2026-05-05 11:34 | 39.58252 | 2.81892 | 950 ft | 144 kts | 237° |
| 2026-05-05 11:34 | 39.57738 | 2.80788 | 838 ft | 141 kts | 237° |
| 2026-05-05 11:34 | 39.57208 | 2.79736 | 662 ft | 141 kts | 237° |
| 2026-05-05 11:35 | 39.56704 | 2.78651 | 507 ft | 142 kts | 238° |
| 2026-05-05 11:35 | 39.56204 | 2.77574 | 295 ft | 137 kts | 237° |
| 2026-05-05 11:35 | 39.55716 | 2.76546 | 125 ft | 132 kts | 238° |
| 2026-05-05 11:35 | 39.55245 | 2.75547 | 42 ft | 120 kts | 238° |
| 2026-05-05 11:36 | 39.54909 | 2.74826 | 43 ft | 65 kts | 241° |
| 2026-05-05 11:36 | 39.54805 | 2.74413 | 43 ft | 25 kts | 269° |
| 2026-05-05 11:36 | 39.54804 | 2.74275 | 43 ft | 13 kts | 269° |
| 2026-05-05 11:36 | 39.54789 | 2.74149 | 42 ft | 15 kts | 250° |
| 2026-05-05 11:37 | 39.54739 | 2.74020 | 42 ft | 16 kts | 244° |
| 2026-05-05 11:37 | 39.54790 | 2.73949 | 43 ft | 14 kts | 14° |
| 2026-05-05 11:37 | 39.54895 | 2.73958 | 40 ft | 17 kts | 335° |
| 2026-05-05 11:37 | 39.55006 | 2.73876 | 43 ft | 20 kts | 330° |
| 2026-05-05 11:38 | 39.55093 | 2.73794 | 43 ft | 10 kts | 289° |
| 2026-05-05 11:38 | 39.55074 | 2.73732 | 42 ft | 8 kts | 233° |
| 2026-05-05 11:38 | 39.55057 | 2.73697 | 43 ft | 3 kts | 239° |
| 2026-05-05 11:38 | 39.55056 | 2.73694 | 43 ft | 0 kts | 239° |